Time;durP1;ratioP1;P1;durP2;ratioP2;P2;SDS_P1;SDS_P2;PMS_P1;PMS_P2;Temp;Humidity;BMP_temperature;BMP_pressure;BME280_temperature;BME280_humidity;BME280_pressure;Samples;Min_cycle;Max_cycle;Signal;HPM_P1;HPM_P2
2022/05/01 00:01:10;;;;;;;46.63;27.53;;;;;;;;;;5086007;28;20216;-75
2022/05/01 00:03:35;;;;;;;42.37;25.67;;;;;;;;;;5084443;28;20177;-75
2022/05/01 00:06:03;;;;;;;44.00;26.00;;;;;;;;;;5082273;28;20184;-75
2022/05/01 00:08:28;;;;;;;42.10;25.17;;;;;;;;;;5083723;28;20169;-75
2022/05/01 00:10:54;;;;;;;40.43;22.53;;;;;;;;;;5084149;28;20269;-75
2022/05/01 00:13:21;;;;;;;42.27;24.57;;;;;;;;;;5085499;28;20181;-75
2022/05/01 00:15:46;;;;;;;37.73;23.63;;;;;;;;;;5087914;28;20173;-75
2022/05/01 00:18:11;;;;;;;44.73;25.80;;;;;;;;;;5089210;28;20185;-75
2022/05/01 00:20:36;;;;;;;42.00;25.10;;;;;;;;;;5090760;28;20200;-75
2022/05/01 00:23:02;;;;;;;43.63;26.60;;;;;;;;;;5089339;28;20169;-75
2022/05/01 00:25:27;;;;;;;47.07;26.93;;;;;;;;;;5083866;28;20209;-75
2022/05/01 00:27:53;;;;;;;39.27;24.47;;;;;;;;;;5090069;28;20224;-75
2022/05/01 00:30:18;;;;;;;42.63;23.37;;;;;;;;;;5083554;28;20181;-75
2022/05/01 00:38:12;;;;;;;42.40;23.73;;;;;;;;;;5087750;28;20177;-75
2022/05/01 00:40:37;;;;;;;44.43;23.67;;;;;;;;;;5092108;28;20205;-75
2022/05/01 00:43:03;;;;;;;47.20;26.80;;;;;;;;;;5086310;28;20194;-75
2022/05/01 00:45:29;;;;;;;47.33;27.77;;;;;;;;;;5082392;28;20183;-75
2022/05/01 00:47:54;;;;;;;41.77;23.90;;;;;;;;;;5090998;28;20269;-75
2022/05/01 00:50:20;;;;;;;41.93;24.27;;;;;;;;;;5092624;28;20185;-75
2022/05/01 00:52:45;;;;;;;45.70;24.70;;;;;;;;;;5095929;28;20165;-74
2022/05/01 00:55:10;;;;;;;43.57;22.73;;;;;;;;;;5083536;28;20259;-75
2022/05/01 00:57:36;;;;;;;39.83;23.13;;;;;;;;;;5091794;28;20181;-75
2022/05/01 01:00:01;;;;;;;41.13;23.80;;;;;;;;;;5085283;28;20184;-75
2022/05/01 01:02:26;;;;;;;46.50;24.93;;;;;;;;;;5082259;28;20185;-75
2022/05/01 01:04:51;;;;;;;41.60;24.73;;;;;;;;;;5090849;28;20189;-74
2022/05/01 01:07:16;;;;;;;41.03;23.63;;;;;;;;;;5089705;28;20175;-75
2022/05/01 01:09:42;;;;;;;37.37;21.73;;;;;;;;;;5083154;28;20178;-75
2022/05/01 01:15:03;;;;;;;37.87;22.17;;;;;;;;;;5091707;28;20186;-75
2022/05/01 01:17:28;;;;;;;49.80;25.27;;;;;;;;;;5078273;28;20171;-75
2022/05/01 01:19:54;;;;;;;42.43;24.97;;;;;;;;;;5083249;28;20485;-74
2022/05/01 01:22:20;;;;;;;41.60;24.43;;;;;;;;;;5087372;28;20204;-75
2022/05/01 01:24:45;;;;;;;43.37;25.07;;;;;;;;;;5086858;28;20174;-74
2022/05/01 01:27:12;;;;;;;39.20;23.80;;;;;;;;;;5084420;28;20176;-75
2022/05/01 01:32:22;;;;;;;45.83;24.80;;;;;;;;;;5084489;28;20191;-75
2022/05/01 01:34:49;;;;;;;46.73;25.13;;;;;;;;;;5085817;28;20201;-75
2022/05/01 01:37:16;;;;;;;44.23;24.73;;;;;;;;;;5079776;28;20238;-75
2022/05/01 01:39:42;;;;;;;39.43;23.50;;;;;;;;;;5079336;28;20212;-75
2022/05/01 01:42:09;;;;;;;51.03;25.27;;;;;;;;;;5075147;28;20202;-75
2022/05/01 01:44:38;;;;;;;39.63;23.83;;;;;;;;;;5089396;28;20234;-75
2022/05/01 01:47:03;;;;;;;48.20;24.67;;;;;;;;;;5086000;28;20173;-75
2022/05/01 01:49:29;;;;;;;45.47;25.40;;;;;;;;;;5088294;28;20181;-75
2022/05/01 01:51:54;;;;;;;46.07;25.90;;;;;;;;;;5082875;28;20287;-74
2022/05/01 01:54:19;;;;;;;48.50;25.07;;;;;;;;;;5079516;28;20260;-74
2022/05/01 01:56:44;;;;;;;47.83;23.23;;;;;;;;;;5077067;28;20226;-74
2022/05/01 01:59:11;;;;;;;45.03;24.57;;;;;;;;;;5099196;28;20267;-75
2022/05/01 02:01:37;;;;;;;47.03;26.00;;;;;;;;;;5079038;28;20209;-75
2022/05/01 02:04:02;;;;;;;47.30;26.67;;;;;;;;;;5087869;28;20191;-74
2022/05/01 02:06:27;;;;;;;55.13;25.23;;;;;;;;;;5084394;28;20169;-74
2022/05/01 02:08:53;;;;;;;46.40;23.67;;;;;;;;;;5088538;28;20177;-74
2022/05/01 02:11:18;;;;;;;52.97;27.13;;;;;;;;;;5079485;28;20169;-75
2022/05/01 02:13:43;;;;;;;46.67;25.17;;;;;;;;;;5089301;28;20172;-75
2022/05/01 02:16:08;;;;;;;58.40;26.80;;;;;;;;;;5086966;28;20181;-75
2022/05/01 02:18:34;;;;;;;50.97;24.60;;;;;;;;;;5089320;28;20168;-75
2022/05/01 02:23:43;;;;;;;51.97;22.47;;;;;;;;;;5088334;28;20223;-74
2022/05/01 02:26:08;;;;;;;49.37;25.57;;;;;;;;;;5082314;28;20189;-74
2022/05/01 02:28:33;;;;;;;46.77;25.10;;;;;;;;;;5078666;28;20225;-74
2022/05/01 02:30:58;;;;;;;55.27;25.97;;;;;;;;;;5084486;28;20179;-74
2022/05/01 02:33:25;;;;;;;46.57;23.03;;;;;;;;;;5081382;28;20170;-74
2022/05/01 02:35:50;;;;;;;42.13;23.77;;;;;;;;;;5078410;28;20240;-74
2022/05/01 02:38:15;;;;;;;53.77;24.83;;;;;;;;;;5079755;28;20293;-74
2022/05/01 02:40:40;;;;;;;42.17;24.77;;;;;;;;;;5079595;28;20200;-74
2022/05/01 02:43:05;;;;;;;41.47;23.13;;;;;;;;;;5082604;28;20219;-74
2022/05/01 02:45:31;;;;;;;47.93;25.50;;;;;;;;;;5081077;28;20176;-74
2022/05/01 02:47:56;;;;;;;42.60;22.67;;;;;;;;;;5084146;28;20338;-74
2022/05/01 02:50:22;;;;;;;47.30;23.30;;;;;;;;;;5083433;28;20587;-74
2022/05/01 02:52:47;;;;;;;45.13;23.63;;;;;;;;;;5080957;28;20166;-74
2022/05/01 02:55:14;;;;;;;47.87;23.57;;;;;;;;;;5085112;28;20218;-74
2022/05/01 02:57:39;;;;;;;46.13;24.63;;;;;;;;;;5085707;28;20176;-74
2022/05/01 03:00:05;;;;;;;37.93;22.13;;;;;;;;;;5087052;28;20283;-74
2022/05/01 03:02:30;;;;;;;45.17;22.93;;;;;;;;;;5082677;28;20211;-74
2022/05/01 03:04:55;;;;;;;33.80;18.87;;;;;;;;;;5087641;28;20174;-74
2022/05/01 03:07:21;;;;;;;30.52;18.98;;;;;;;;;;5083590;28;20189;-74
2022/05/01 03:09:46;;;;;;;33.17;19.70;;;;;;;;;;5077786;28;20231;-74
2022/05/01 03:12:11;;;;;;;29.90;17.43;;;;;;;;;;5076264;28;20181;-74
2022/05/01 03:14:36;;;;;;;34.40;19.60;;;;;;;;;;5079961;28;20266;-74
2022/05/01 03:17:01;;;;;;;33.90;18.90;;;;;;;;;;5086333;28;20184;-74
2022/05/01 03:22:10;;;;;;;33.87;19.93;;;;;;;;;;5077837;28;20207;-74
2022/05/01 03:24:36;;;;;;;30.50;17.90;;;;;;;;;;5082483;28;20176;-74
2022/05/01 03:27:01;;;;;;;31.63;17.73;;;;;;;;;;5077925;28;20173;-74
2022/05/01 03:29:27;;;;;;;27.53;16.53;;;;;;;;;;5085336;28;20236;-74
2022/05/01 03:31:52;;;;;;;26.90;17.00;;;;;;;;;;5083528;28;20184;-74
2022/05/01 03:34:17;;;;;;;32.30;17.93;;;;;;;;;;5078705;28;20300;-74
2022/05/01 03:36:44;;;;;;;23.43;15.27;;;;;;;;;;5081695;28;20314;-74
2022/05/01 03:39:09;;;;;;;26.87;15.93;;;;;;;;;;5083830;28;20212;-74
2022/05/01 03:41:35;;;;;;;27.63;16.63;;;;;;;;;;5079212;28;20288;-74
2022/05/01 03:44:00;;;;;;;23.10;13.97;;;;;;;;;;5086730;28;20177;-74
2022/05/01 03:46:25;;;;;;;25.10;15.67;;;;;;;;;;5083025;28;20183;-74
2022/05/01 03:48:50;;;;;;;22.93;15.30;;;;;;;;;;5084007;28;20177;-74
2022/05/01 03:51:16;;;;;;;24.10;15.10;;;;;;;;;;5087548;28;20261;-74
2022/05/01 03:53:41;;;;;;;26.87;15.47;;;;;;;;;;5079763;28;20180;-74
2022/05/01 03:56:07;;;;;;;25.33;16.00;;;;;;;;;;5085373;28;20206;-74
2022/05/01 03:58:32;;;;;;;29.67;17.27;;;;;;;;;;5088341;28;20200;-74
2022/05/01 04:00:58;;;;;;;28.20;17.83;;;;;;;;;;5081134;28;20201;-74
2022/05/01 04:03:23;;;;;;;26.60;17.40;;;;;;;;;;5087304;28;20279;-74
2022/05/01 04:05:48;;;;;;;27.37;17.17;;;;;;;;;;5082460;28;20226;-74
2022/05/01 04:08:14;;;;;;;30.53;17.80;;;;;;;;;;5091167;28;20188;-74
2022/05/01 04:10:41;;;;;;;25.67;15.63;;;;;;;;;;5080026;28;20190;-74
2022/05/01 04:13:06;;;;;;;28.50;16.00;;;;;;;;;;5088504;28;20196;-74
2022/05/01 04:15:32;;;;;;;26.30;15.97;;;;;;;;;;5089681;28;20187;-74
2022/05/01 04:17:57;;;;;;;22.63;15.07;;;;;;;;;;5084475;28;20182;-74
2022/05/01 04:20:23;;;;;;;26.07;14.97;;;;;;;;;;5087550;28;20285;-74
2022/05/01 04:22:49;;;;;;;20.90;13.30;;;;;;;;;;5077023;28;20182;-74
2022/05/01 04:25:29;;;;;;;19.13;12.33;;;;;;;;;;5088952;28;20226;-74
2022/05/01 04:27:59;;;;;;;19.70;12.77;;;;;;;;;;5082338;28;20227;-74
2022/05/01 04:30:26;;;;;;;21.07;13.90;;;;;;;;;;5089485;28;20188;-74
2022/05/01 04:32:57;;;;;;;22.03;12.70;;;;;;;;;;5087254;28;20305;-74
2022/05/01 04:35:22;;;;;;;19.10;12.40;;;;;;;;;;5090716;28;20201;-74
2022/05/01 04:37:48;;;;;;;32.63;18.60;;;;;;;;;;5087301;28;20223;-74
2022/05/01 04:40:14;;;;;;;29.07;18.20;;;;;;;;;;5086216;28;20258;-74
2022/05/01 04:42:40;;;;;;;26.63;16.47;;;;;;;;;;5083264;28;20208;-74
2022/05/01 04:45:05;;;;;;;30.70;17.07;;;;;;;;;;5089346;28;20337;-74
2022/05/01 04:47:30;;;;;;;29.77;18.03;;;;;;;;;;5088723;28;20210;-74
2022/05/01 04:49:55;;;;;;;28.47;15.10;;;;;;;;;;5081184;28;20199;-74
2022/05/01 04:52:21;;;;;;;24.87;15.53;;;;;;;;;;5085583;28;20209;-74
2022/05/01 04:54:46;;;;;;;26.63;16.37;;;;;;;;;;5090741;28;20180;-74
2022/05/01 04:57:13;;;;;;;26.03;16.47;;;;;;;;;;5091730;28;20172;-74
2022/05/01 04:59:38;;;;;;;26.37;16.40;;;;;;;;;;5087493;28;20188;-74
2022/05/01 05:02:04;;;;;;;30.70;17.43;;;;;;;;;;5080724;28;20396;-74
2022/05/01 05:04:29;;;;;;;29.73;16.30;;;;;;;;;;5079713;28;20185;-74
2022/05/01 05:06:54;;;;;;;29.07;17.70;;;;;;;;;;5077412;28;20185;-74
2022/05/01 05:12:07;;;;;;;23.03;14.20;;;;;;;;;;5089351;28;20190;-74
2022/05/01 05:14:33;;;;;;;22.83;14.73;;;;;;;;;;5082354;28;20177;-76
2022/05/01 05:16:58;;;;;;;24.80;14.93;;;;;;;;;;5079130;28;20184;-74
2022/05/01 05:19:23;;;;;;;27.00;15.77;;;;;;;;;;5082753;28;20199;-74
2022/05/01 05:21:49;;;;;;;23.57;14.33;;;;;;;;;;5083517;28;20226;-74
2022/05/01 05:24:14;;;;;;;22.47;14.60;;;;;;;;;;5094901;28;20189;-74
2022/05/01 05:26:39;;;;;;;20.77;13.73;;;;;;;;;;5083375;28;20176;-74
2022/05/01 05:29:04;;;;;;;21.30;14.07;;;;;;;;;;5085719;28;20277;-74
2022/05/01 05:31:29;;;;;;;22.60;14.73;;;;;;;;;;5089454;28;20198;-74
2022/05/01 05:33:55;;;;;;;25.00;15.07;;;;;;;;;;5085520;28;20191;-74
2022/05/01 05:36:20;;;;;;;22.50;14.73;;;;;;;;;;5090150;27;20692;-74
2022/05/01 05:38:45;;;;;;;24.47;14.13;;;;;;;;;;5088689;28;20219;-74
2022/05/01 05:41:10;;;;;;;23.70;15.07;;;;;;;;;;5084680;28;20204;-74
2022/05/01 05:43:35;;;;;;;28.07;16.33;;;;;;;;;;5081444;28;20184;-74
2022/05/01 05:46:01;;;;;;;27.00;15.50;;;;;;;;;;5081379;28;20194;-74
2022/05/01 05:48:28;;;;;;;30.70;17.53;;;;;;;;;;5089722;28;20175;-74
2022/05/01 05:50:53;;;;;;;30.30;17.40;;;;;;;;;;5085856;28;20214;-74
2022/05/01 05:53:18;;;;;;;33.67;17.63;;;;;;;;;;5082677;28;20212;-74
2022/05/01 05:55:45;;;;;;;26.70;16.52;;;;;;;;;;5086338;28;20181;-74
2022/05/01 05:58:10;;;;;;;25.77;16.83;;;;;;;;;;5088547;28;20182;-74
2022/05/01 06:00:35;;;;;;;31.40;18.30;;;;;;;;;;5083492;28;20205;-74
2022/05/01 06:03:01;;;;;;;29.57;17.03;;;;;;;;;;5085491;28;20182;-76
2022/05/01 06:05:26;;;;;;;31.13;17.17;;;;;;;;;;5091008;28;20310;-74
2022/05/01 06:07:52;;;;;;;26.60;16.37;;;;;;;;;;5086756;28;20172;-74
2022/05/01 06:10:17;;;;;;;27.37;17.37;;;;;;;;;;5088392;28;20173;-74
2022/05/01 06:12:43;;;;;;;26.53;14.97;;;;;;;;;;5083998;28;20181;-74
2022/05/01 06:15:08;;;;;;;28.07;18.47;;;;;;;;;;5083563;28;20175;-74
2022/05/01 06:17:34;;;;;;;25.87;16.43;;;;;;;;;;5078752;28;20181;-74
2022/05/01 06:19:59;;;;;;;27.67;17.47;;;;;;;;;;5078508;28;20212;-74
2022/05/01 06:22:24;;;;;;;27.90;16.37;;;;;;;;;;5083113;28;20209;-74
2022/05/01 06:24:49;;;;;;;27.27;16.37;;;;;;;;;;5095259;28;20177;-74
2022/05/01 06:27:14;;;;;;;26.40;17.43;;;;;;;;;;5075571;28;20171;-74
2022/05/01 06:29:39;;;;;;;30.13;18.37;;;;;;;;;;5088144;28;20250;-74
2022/05/01 06:32:05;;;;;;;25.00;16.07;;;;;;;;;;5081782;28;20185;-74
2022/05/01 06:34:30;;;;;;;24.00;16.87;;;;;;;;;;5089949;28;20218;-74
2022/05/01 06:36:56;;;;;;;28.37;16.30;;;;;;;;;;5087793;28;20177;-74
2022/05/01 06:39:21;;;;;;;24.07;16.10;;;;;;;;;;5074282;28;20210;-74
2022/05/01 06:41:46;;;;;;;24.90;15.80;;;;;;;;;;5086190;28;20249;-74
2022/05/01 06:44:11;;;;;;;26.00;16.03;;;;;;;;;;5086868;28;20199;-74
2022/05/01 06:46:37;;;;;;;24.93;17.27;;;;;;;;;;5078982;28;20212;-74
2022/05/01 06:49:02;;;;;;;27.57;17.27;;;;;;;;;;5085371;28;20259;-74
2022/05/01 06:51:27;;;;;;;27.43;17.23;;;;;;;;;;5086158;28;20164;-75
2022/05/01 06:53:52;;;;;;;27.23;17.27;;;;;;;;;;5078895;28;20212;-74
2022/05/01 06:56:17;;;;;;;26.80;16.60;;;;;;;;;;5077981;28;20237;-74
2022/05/01 06:58:42;;;;;;;23.63;15.50;;;;;;;;;;5086542;28;20176;-74
2022/05/01 07:01:08;;;;;;;21.67;14.63;;;;;;;;;;5081428;28;20278;-74
2022/05/01 07:03:33;;;;;;;23.90;14.10;;;;;;;;;;5086934;28;20177;-74
2022/05/01 07:06:00;;;;;;;24.13;15.07;;;;;;;;;;5088981;28;20179;-74
2022/05/01 07:08:26;;;;;;;24.03;15.90;;;;;;;;;;5082479;28;20173;-74
2022/05/01 07:10:51;;;;;;;23.60;16.73;;;;;;;;;;5086203;28;20229;-74
2022/05/01 07:13:16;;;;;;;21.43;14.33;;;;;;;;;;5086620;28;20177;-75
2022/05/01 07:15:42;;;;;;;21.77;15.60;;;;;;;;;;5078544;28;20173;-75
2022/05/01 07:18:07;;;;;;;21.30;14.20;;;;;;;;;;5086887;28;20169;-74
2022/05/01 07:20:35;;;;;;;18.43;13.57;;;;;;;;;;5082577;28;20205;-74
2022/05/01 07:23:01;;;;;;;16.83;12.87;;;;;;;;;;5084179;28;20187;-74
2022/05/01 07:25:26;;;;;;;15.10;12.07;;;;;;;;;;5081132;28;20176;-74
2022/05/01 07:27:51;;;;;;;17.73;12.50;;;;;;;;;;5089697;28;20208;-74
2022/05/01 07:30:16;;;;;;;16.00;12.60;;;;;;;;;;5094083;28;20170;-75
2022/05/01 07:32:41;;;;;;;18.00;12.80;;;;;;;;;;5083304;28;20260;-74
2022/05/01 07:35:07;;;;;;;17.33;12.50;;;;;;;;;;5086836;28;20231;-74
2022/05/01 07:37:32;;;;;;;17.60;12.73;;;;;;;;;;5088872;28;20269;-74
2022/05/01 07:39:57;;;;;;;19.07;13.13;;;;;;;;;;5089827;28;20208;-74
2022/05/01 07:42:23;;;;;;;18.77;13.83;;;;;;;;;;5090841;28;20201;-75
2022/05/01 07:44:49;;;;;;;17.53;12.50;;;;;;;;;;5085439;28;20169;-75
2022/05/01 07:47:14;;;;;;;17.30;12.57;;;;;;;;;;5081068;28;20173;-74
2022/05/01 07:49:39;;;;;;;15.07;12.57;;;;;;;;;;5085897;28;20176;-74
2022/05/01 07:52:05;;;;;;;15.97;11.47;;;;;;;;;;5088141;28;20183;-75
2022/05/01 07:54:30;;;;;;;18.33;13.47;;;;;;;;;;5085568;28;20243;-75
2022/05/01 07:56:55;;;;;;;18.30;11.90;;;;;;;;;;5083411;28;20238;-75
2022/05/01 07:59:20;;;;;;;15.23;11.60;;;;;;;;;;5091414;28;20226;-75
2022/05/01 08:01:46;;;;;;;18.57;11.97;;;;;;;;;;5085153;28;20209;-74
2022/05/01 08:04:29;;;;;;;16.43;12.13;;;;;;;;;;5090999;28;20176;-74
2022/05/01 08:06:55;;;;;;;18.73;12.90;;;;;;;;;;5084988;28;20223;-75
2022/05/01 08:09:20;;;;;;;16.63;13.43;;;;;;;;;;5081184;28;20182;-75
2022/05/01 08:11:46;;;;;;;13.77;11.40;;;;;;;;;;5073323;28;20367;-75
2022/05/01 08:14:12;;;;;;;14.03;10.60;;;;;;;;;;5079573;28;20185;-75
2022/05/01 08:16:38;;;;;;;15.27;11.43;;;;;;;;;;5090176;28;20176;-75
2022/05/01 08:21:47;;;;;;;15.60;11.00;;;;;;;;;;5086877;28;20200;-75
2022/05/01 08:24:12;;;;;;;13.97;9.70;;;;;;;;;;5085863;28;20265;-75
2022/05/01 08:26:38;;;;;;;13.60;9.37;;;;;;;;;;5085224;28;20243;-75
2022/05/01 08:29:03;;;;;;;11.80;9.30;;;;;;;;;;5082455;28;20263;-75
2022/05/01 08:31:28;;;;;;;13.43;9.87;;;;;;;;;;5082582;28;20175;-74
2022/05/01 08:33:54;;;;;;;12.77;10.67;;;;;;;;;;5087775;28;20228;-75
2022/05/01 08:36:20;;;;;;;11.63;9.13;;;;;;;;;;5080449;28;20185;-74
2022/05/01 08:38:45;;;;;;;11.90;10.23;;;;;;;;;;5086960;28;20188;-75
2022/05/01 08:41:10;;;;;;;11.40;9.13;;;;;;;;;;5078259;28;20190;-75
2022/05/01 08:43:36;;;;;;;11.40;8.73;;;;;;;;;;5078781;28;20177;-75
2022/05/01 08:46:07;;;;;;;13.43;9.40;;;;;;;;;;5079652;28;20182;-74
2022/05/01 08:48:51;;;;;;;14.40;9.57;;;;;;;;;;5084770;28;20192;-75
2022/05/01 08:51:17;;;;;;;11.03;9.37;;;;;;;;;;5081656;28;20197;-75
2022/05/01 08:53:43;;;;;;;10.90;9.30;;;;;;;;;;5076953;28;20217;-75
2022/05/01 08:56:09;;;;;;;10.67;8.57;;;;;;;;;;5081966;28;20177;-75
2022/05/01 08:58:35;;;;;;;12.60;9.90;;;;;;;;;;5083759;28;20174;-75
2022/05/01 09:01:01;;;;;;;12.30;9.40;;;;;;;;;;5078127;28;20201;-75
2022/05/01 09:03:26;;;;;;;11.73;9.20;;;;;;;;;;5077424;28;20268;-75
2022/05/01 09:05:51;;;;;;;12.90;9.47;;;;;;;;;;5080602;28;20188;-75
2022/05/01 09:08:17;;;;;;;13.30;9.00;;;;;;;;;;5077916;28;20405;-75
2022/05/01 09:10:43;;;;;;;11.03;8.53;;;;;;;;;;5078785;28;20201;-75
2022/05/01 09:13:08;;;;;;;9.93;8.77;;;;;;;;;;5079057;28;20292;-74
2022/05/01 09:15:34;;;;;;;10.93;9.17;;;;;;;;;;5082940;28;20274;-75
2022/05/01 09:18:03;;;;;;;14.53;9.47;;;;;;;;;;5088267;28;20268;-75
2022/05/01 09:20:30;;;;;;;11.73;8.70;;;;;;;;;;5082967;28;20198;-75
2022/05/01 09:22:57;;;;;;;11.93;9.20;;;;;;;;;;5081321;28;20539;-75
2022/05/01 09:25:23;;;;;;;11.23;8.77;;;;;;;;;;5076782;28;21848;-75
2022/05/01 09:27:59;;;;;;;10.53;7.87;;;;;;;;;;5079397;28;20180;-75
2022/05/01 09:30:38;;;;;;;10.50;8.20;;;;;;;;;;5086552;28;20182;-75
2022/05/01 09:33:04;;;;;;;12.13;8.40;;;;;;;;;;5086445;28;20314;-74
2022/05/01 09:35:31;;;;;;;10.00;8.53;;;;;;;;;;5079581;28;20188;-75
2022/05/01 09:38:15;;;;;;;9.37;8.37;;;;;;;;;;5083584;28;20172;-74
2022/05/01 09:40:42;;;;;;;9.77;7.80;;;;;;;;;;5073658;28;20205;-75
2022/05/01 09:43:07;;;;;;;11.57;8.80;;;;;;;;;;5081053;28;20170;-75
2022/05/01 09:45:33;;;;;;;10.23;8.37;;;;;;;;;;5087869;28;20172;-75
2022/05/01 09:47:58;;;;;;;10.47;9.23;;;;;;;;;;5089242;28;20317;-75
2022/05/01 09:50:40;;;;;;;10.13;8.00;;;;;;;;;;5076499;28;20269;-75
2022/05/01 09:53:06;;;;;;;11.50;8.47;;;;;;;;;;5082935;28;20250;-75
2022/05/01 09:55:31;;;;;;;9.30;7.90;;;;;;;;;;5090141;28;20183;-75
2022/05/01 09:58:02;;;;;;;11.20;8.83;;;;;;;;;;5085096;28;20182;-75
2022/05/01 10:00:54;;;;;;;11.00;8.37;;;;;;;;;;5082338;28;20185;-74
2022/05/01 10:03:31;;;;;;;10.43;8.17;;;;;;;;;;5085693;28;20533;-75
2022/05/01 10:05:57;;;;;;;9.90;8.10;;;;;;;;;;5090088;28;21531;-75
2022/05/01 10:08:23;;;;;;;10.60;7.43;;;;;;;;;;5078651;28;20188;-75
2022/05/01 10:10:49;;;;;;;9.30;7.90;;;;;;;;;;5075621;28;20174;-75
2022/05/01 10:13:15;;;;;;;9.57;7.63;;;;;;;;;;5076762;28;20177;-75
2022/05/01 10:15:40;;;;;;;9.50;7.40;;;;;;;;;;5078592;28;20212;-74
2022/05/01 10:18:06;;;;;;;10.43;8.27;;;;;;;;;;5078301;28;20193;-75
2022/05/01 10:20:33;;;;;;;10.13;8.90;;;;;;;;;;5088290;28;20216;-75
2022/05/01 10:22:59;;;;;;;9.63;8.63;;;;;;;;;;5086531;28;20173;-75
2022/05/01 10:25:24;;;;;;;10.30;9.20;;;;;;;;;;5082038;28;20184;-75
2022/05/01 10:27:56;;;;;;;12.47;10.00;;;;;;;;;;5081397;28;20171;-75
2022/05/01 10:33:24;;;;;;;10.37;8.23;;;;;;;;;;5083952;28;20204;-75
2022/05/01 10:35:54;;;;;;;11.63;9.67;;;;;;;;;;5075069;28;20188;-75
2022/05/01 10:38:52;;;;;;;8.97;8.00;;;;;;;;;;5084629;28;20196;-75
2022/05/01 10:41:18;;;;;;;8.50;7.60;;;;;;;;;;5055780;28;20221;-75
2022/05/01 10:43:52;;;;;;;10.60;8.13;;;;;;;;;;5082362;28;20175;-75
2022/05/01 10:46:21;;;;;;;10.70;7.67;;;;;;;;;;5082852;28;20187;-75
2022/05/01 10:48:46;;;;;;;8.37;7.37;;;;;;;;;;5080654;28;20183;-75
2022/05/01 10:51:39;;;;;;;9.90;7.60;;;;;;;;;;5075138;28;20169;-75
2022/05/01 10:54:10;;;;;;;10.97;8.00;;;;;;;;;;5080826;28;20580;-75
2022/05/01 10:56:35;;;;;;;10.87;8.60;;;;;;;;;;5079175;28;20181;-75
2022/05/01 10:59:19;;;;;;;10.47;8.83;;;;;;;;;;5074426;28;20180;-74
2022/05/01 11:01:52;;;;;;;9.10;8.10;;;;;;;;;;5070595;28;20192;-75
2022/05/01 11:04:19;;;;;;;8.53;7.63;;;;;;;;;;5084724;28;20180;-75
2022/05/01 11:06:45;;;;;;;10.40;9.07;;;;;;;;;;5080283;28;20177;-75
2022/05/01 11:09:13;;;;;;;11.67;9.10;;;;;;;;;;5075363;28;20180;-75
2022/05/01 11:11:39;;;;;;;8.10;7.23;;;;;;;;;;5079357;28;20173;-75
2022/05/01 11:14:04;;;;;;;10.93;8.67;;;;;;;;;;5073739;28;20188;-75
2022/05/01 11:16:48;;;;;;;9.73;8.30;;;;;;;;;;5071787;28;20208;-75
2022/05/01 11:19:13;;;;;;;9.43;8.23;;;;;;;;;;5078098;28;20195;-75
2022/05/01 11:21:38;;;;;;;10.73;8.23;;;;;;;;;;5079669;28;20199;-75
2022/05/01 11:24:04;;;;;;;9.13;7.80;;;;;;;;;;5076853;28;20168;-74
2022/05/01 11:26:29;;;;;;;11.83;8.90;;;;;;;;;;5076954;28;20204;-75
2022/05/01 11:28:58;;;;;;;7.97;7.17;;;;;;;;;;5077033;28;20216;-75
2022/05/01 11:31:38;;;;;;;9.60;7.90;;;;;;;;;;5083656;28;20283;-75
2022/05/01 11:34:15;;;;;;;8.10;6.90;;;;;;;;;;5078221;28;20176;-75
2022/05/01 11:37:03;;;;;;;11.60;8.50;;;;;;;;;;5076561;28;20203;-75
2022/05/01 11:39:50;;;;;;;9.37;7.47;;;;;;;;;;5080159;28;20191;-75
2022/05/01 11:42:24;;;;;;;10.30;8.53;;;;;;;;;;5074540;28;20291;-75
2022/05/01 11:44:49;;;;;;;10.60;7.83;;;;;;;;;;5081065;28;20178;-75
2022/05/01 11:47:15;;;;;;;9.40;8.00;;;;;;;;;;5082309;28;20186;-75
2022/05/01 11:49:40;;;;;;;8.80;7.90;;;;;;;;;;5084674;28;20172;-75
2022/05/01 11:52:06;;;;;;;8.03;7.23;;;;;;;;;;5075569;28;20181;-75
2022/05/01 11:54:31;;;;;;;8.33;7.37;;;;;;;;;;5079024;28;20184;-75
2022/05/01 12:02:24;;;;;;;7.60;6.80;;;;;;;;;;5078058;28;20268;-75
2022/05/01 12:04:50;;;;;;;10.30;8.30;;;;;;;;;;5076893;28;20256;-75
2022/05/01 12:07:16;;;;;;;8.27;7.20;;;;;;;;;;5075682;28;20276;-75
2022/05/01 12:09:42;;;;;;;8.50;7.60;;;;;;;;;;5079392;28;20196;-75
2022/05/01 12:12:12;;;;;;;9.27;7.70;;;;;;;;;;5082790;28;20193;-75
2022/05/01 12:14:38;;;;;;;8.97;8.03;;;;;;;;;;5080298;28;20187;-75
2022/05/01 12:17:10;;;;;;;8.03;7.23;;;;;;;;;;5085819;28;20187;-75
2022/05/01 12:19:39;;;;;;;8.53;7.63;;;;;;;;;;5087899;28;20535;-75
2022/05/01 12:22:05;;;;;;;8.87;7.33;;;;;;;;;;5079996;28;20211;-75
2022/05/01 12:24:30;;;;;;;9.27;8.27;;;;;;;;;;5075549;28;20173;-75
2022/05/01 12:26:55;;;;;;;8.50;7.03;;;;;;;;;;5071693;28;20188;-75
2022/05/01 12:29:21;;;;;;;10.03;8.20;;;;;;;;;;5086366;28;20220;-75
2022/05/01 12:31:58;;;;;;;9.90;8.47;;;;;;;;;;5084714;28;20267;-75
2022/05/01 12:34:24;;;;;;;10.47;7.97;;;;;;;;;;5083265;28;20189;-75
2022/05/01 12:36:56;;;;;;;9.53;7.17;;;;;;;;;;5083154;28;20217;-75
2022/05/01 12:39:22;;;;;;;8.90;7.37;;;;;;;;;;5082990;28;20263;-74
2022/05/01 12:45:02;;;;;;;8.20;7.10;;;;;;;;;;5081085;28;20177;-75
2022/05/01 12:47:34;;;;;;;8.73;7.83;;;;;;;;;;5091781;28;20193;-75
2022/05/01 12:50:00;;;;;;;8.37;7.47;;;;;;;;;;5083473;28;20171;-75
2022/05/01 12:52:32;;;;;;;8.60;7.77;;;;;;;;;;5083067;28;20192;-75
2022/05/01 12:55:07;;;;;;;8.00;7.20;;;;;;;;;;5084500;28;20203;-75
2022/05/01 12:57:36;;;;;;;8.77;7.87;;;;;;;;;;5079532;28;20184;-75
2022/05/01 13:00:02;;;;;;;8.80;7.43;;;;;;;;;;5084553;28;20261;-75
2022/05/01 13:02:27;;;;;;;8.17;7.37;;;;;;;;;;5085690;28;20292;-75
2022/05/01 13:04:57;;;;;;;9.40;7.13;;;;;;;;;;5081880;28;20184;-75
2022/05/01 13:07:29;;;;;;;7.50;6.80;;;;;;;;;;5084347;28;20246;-75
2022/05/01 13:09:54;;;;;;;8.17;7.30;;;;;;;;;;5082136;28;20183;-75
2022/05/01 13:12:40;;;;;;;9.47;6.80;;;;;;;;;;5085419;28;20213;-75
2022/05/01 13:15:05;;;;;;;8.00;6.80;;;;;;;;;;5078437;28;20236;-75
2022/05/01 13:17:31;;;;;;;7.90;6.87;;;;;;;;;;5080210;28;20184;-75
2022/05/01 13:19:57;;;;;;;7.47;6.63;;;;;;;;;;5078214;28;20232;-75
2022/05/01 13:22:22;;;;;;;9.07;6.80;;;;;;;;;;5074510;28;20199;-75
2022/05/01 13:24:52;;;;;;;8.33;6.97;;;;;;;;;;5081846;28;20178;-75
2022/05/01 13:27:17;;;;;;;8.27;6.40;;;;;;;;;;5079739;28;20267;-75
2022/05/01 13:29:42;;;;;;;8.80;7.20;;;;;;;;;;5093729;28;20305;-75
2022/05/01 13:32:08;;;;;;;10.80;7.33;;;;;;;;;;5079144;28;20181;-75
2022/05/01 13:34:37;;;;;;;8.03;7.23;;;;;;;;;;5083093;28;20206;-75
2022/05/01 13:37:03;;;;;;;8.83;7.93;;;;;;;;;;5083291;28;20185;-75
2022/05/01 13:44:57;;;;;;;7.57;6.57;;;;;;;;;;5086677;28;20221;-75
2022/05/01 13:47:23;;;;;;;8.47;7.40;;;;;;;;;;5086604;28;20172;-75
2022/05/01 13:49:48;;;;;;;8.27;7.40;;;;;;;;;;5085480;28;20175;-75
2022/05/01 13:52:14;;;;;;;9.00;7.87;;;;;;;;;;5080168;28;20177;-75
2022/05/01 13:54:39;;;;;;;8.40;7.17;;;;;;;;;;5079572;28;20173;-75
2022/05/01 13:57:05;;;;;;;10.03;7.17;;;;;;;;;;5073646;28;20190;-75
2022/05/01 13:59:30;;;;;;;7.87;7.07;;;;;;;;;;5079276;28;20186;-75
2022/05/01 14:01:56;;;;;;;8.00;7.17;;;;;;;;;;5077706;28;20201;-75
2022/05/01 14:04:22;;;;;;;8.30;7.30;;;;;;;;;;5081463;28;20290;-75
2022/05/01 14:06:49;;;;;;;8.40;6.87;;;;;;;;;;5080313;28;20269;-75
2022/05/01 14:09:20;;;;;;;9.10;7.27;;;;;;;;;;5078584;27;20188;-75
2022/05/01 14:11:52;;;;;;;7.60;6.33;;;;;;;;;;5080689;28;20210;-75
2022/05/01 14:14:18;;;;;;;9.73;8.07;;;;;;;;;;5085934;28;20171;-74
2022/05/01 14:16:43;;;;;;;7.57;6.73;;;;;;;;;;5088675;28;20192;-75
2022/05/01 14:19:10;;;;;;;8.10;6.70;;;;;;;;;;5084570;28;20254;-75
2022/05/01 14:21:42;;;;;;;7.93;7.13;;;;;;;;;;5074749;28;20203;-75
2022/05/01 14:24:07;;;;;;;9.30;7.13;;;;;;;;;;5088765;28;20179;-75
2022/05/01 14:26:33;;;;;;;6.97;6.27;;;;;;;;;;5081549;28;20467;-75
2022/05/01 14:28:58;;;;;;;9.20;7.03;;;;;;;;;;5084835;28;20251;-75
2022/05/01 14:31:35;;;;;;;8.80;6.87;;;;;;;;;;5079467;28;20202;-75
2022/05/01 14:34:05;;;;;;;9.10;6.73;;;;;;;;;;5082655;28;20185;-75
2022/05/01 14:36:35;;;;;;;7.60;6.87;;;;;;;;;;5080068;28;20176;-75
2022/05/01 14:39:03;;;;;;;9.43;6.60;;;;;;;;;;5081721;28;20183;-75
2022/05/01 14:41:40;;;;;;;10.23;6.33;;;;;;;;;;5086062;28;20201;-75
2022/05/01 14:44:07;;;;;;;10.73;7.20;;;;;;;;;;5081910;28;20194;-75
2022/05/01 14:46:35;;;;;;;10.00;7.67;;;;;;;;;;5084368;28;20168;-75
2022/05/01 14:49:10;;;;;;;8.80;7.47;;;;;;;;;;5080918;28;20202;-75
2022/05/01 14:51:38;;;;;;;9.30;7.27;;;;;;;;;;5085540;28;20180;-75
2022/05/01 14:54:04;;;;;;;9.17;6.87;;;;;;;;;;5078522;28;20181;-75
2022/05/01 14:56:29;;;;;;;9.43;7.23;;;;;;;;;;5082076;28;20202;-75
2022/05/01 15:07:11;;;;;;;7.90;7.10;;;;;;;;;;5085472;28;20199;-75
2022/05/01 15:09:38;;;;;;;7.53;6.83;;;;;;;;;;5073988;28;20176;-75
2022/05/01 15:12:04;;;;;;;10.03;6.97;;;;;;;;;;5081014;28;20186;-75